Time,TemperatureF,DewpointF,PressureIn,WindDirection,WindDirectionDegrees,WindSpeedMPH,WindSpeedGustMPH,Humidity,HourlyPrecipIn,Conditions,Clouds,dailyrainin,SoftwareType,DateUTC
2013-02-18 00:01:00,28.0,12.0,29.94,WNW,300,7.0,-999.0,50,-99.99,,,-99.99,,2013-02-18 07:01:00,
2013-02-18 00:11:00,28.0,14.0,29.94,WNW,290,8.0,-999.0,54,-99.99,,,-99.99,,2013-02-18 07:11:00,
2013-02-18 00:21:00,28.0,14.0,29.94,WNW,290,8.0,-999.0,54,-99.99,,,-99.99,,2013-02-18 07:21:00,
2013-02-18 00:31:00,28.0,14.0,29.94,West,280,8.0,-999.0,54,-99.99,,,-99.99,,2013-02-18 07:31:00,
2013-02-18 00:42:00,28.0,14.0,29.94,West,280,8.0,-999.0,54,-99.99,,,-99.99,,2013-02-18 07:42:00,
2013-02-18 00:51:00,28.0,14.0,29.95,West,280,7.0,-999.0,54,-99.99,,,-99.99,,2013-02-18 07:51:00,
2013-02-18 01:01:00,28.0,14.0,29.95,West,280,7.0,-999.0,54,-99.99,,,-99.99,,2013-02-18 08:01:00,
2013-02-18 01:11:00,28.0,14.0,29.95,West,280,7.0,-999.0,54,-99.99,,,-99.99,,2013-02-18 08:11:00,
2013-02-18 01:21:00,28.0,14.0,29.95,West,280,7.0,-999.0,54,-99.99,,,-99.99,,2013-02-18 08:21:00,
2013-02-18 01:52:00,28.0,14.0,29.96,West,280,5.0,-999.0,54,-99.99,,,-99.99,,2013-02-18 08:52:00,
2013-02-18 02:02:00,28.0,14.0,29.96,West,280,5.0,-999.0,54,-99.99,,,-99.99,,2013-02-18 09:02:00,
2013-02-18 02:31:00,28.0,14.0,29.97,WSW,250,6.0,-999.0,54,-99.99,,,-99.99,,2013-02-18 09:31:00,
2013-02-18 02:42:00,28.0,14.0,29.97,WSW,250,6.0,-999.0,54,-99.99,,,-99.99,,2013-02-18 09:42:00,
2013-02-18 02:52:00,28.0,14.0,29.98,West,260,8.0,-999.0,54,-99.99,,,-99.99,,2013-02-18 09:52:00,
2013-02-18 03:01:00,28.0,14.0,29.98,West,260,8.0,-999.0,54,-99.99,,,-99.99,,2013-02-18 10:01:00,
2013-02-18 03:11:00,28.0,14.0,29.98,North,0,0.0,-999.0,54,-99.99,,,-99.99,,2013-02-18 10:11:00,
2013-02-18 03:21:00,28.0,14.0,29.98,North,0,0.0,-999.0,54,-99.99,,,-99.99,,2013-02-18 10:21:00,
2013-02-18 03:31:00,28.0,16.0,29.98,North,0,0.0,-999.0,58,-99.99,,,-99.99,,2013-02-18 10:31:00,
2013-02-18 03:42:00,28.0,16.0,29.98,North,0,0.0,-999.0,58,-99.99,,,-99.99,,2013-02-18 10:42:00,
2013-02-18 03:51:00,28.0,16.0,29.98,North,0,0.0,-999.0,58,-99.99,,,-99.99,,2013-02-18 10:51:00,
2013-02-18 04:01:00,28.0,16.0,29.98,North,0,0.0,-999.0,58,-99.99,,,-99.99,,2013-02-18 11:01:00,
2013-02-18 04:11:00,27.0,14.0,29.98,North,0,0.0,-999.0,58,-99.99,,,-99.99,,2013-02-18 11:11:00,
2013-02-18 04:21:00,27.0,14.0,29.98,North,0,0.0,-999.0,58,-99.99,,,-99.99,,2013-02-18 11:21:00,
2013-02-18 04:31:00,28.0,14.0,29.98,North,0,0.0,-999.0,54,-99.99,,,-99.99,,2013-02-18 11:31:00,
2013-02-18 04:42:00,28.0,14.0,29.98,North,0,0.0,-999.0,54,-99.99,,,-99.99,,2013-02-18 11:42:00,
2013-02-18 04:52:00,27.0,12.0,29.99,North,0,0.0,-999.0,54,-99.99,,,-99.99,,2013-02-18 11:52:00,
2013-02-18 05:02:00,27.0,12.0,29.99,North,0,0.0,-999.0,54,-99.99,,,-99.99,,2013-02-18 12:02:00,
2013-02-18 05:31:00,27.0,12.0,30.00,West,280,14.0,18.0,54,-99.99,,,-99.99,,2013-02-18 12:31:00,
2013-02-18 05:42:00,27.0,12.0,30.00,West,280,14.0,18.0,54,-99.99,,,-99.99,,2013-02-18 12:42:00,
2013-02-18 05:53:00,27.0,16.0,30.00,West,280,12.0,-999.0,63,-99.99,,,-99.99,,2013-02-18 12:53:00,
2013-02-18 06:02:00,27.0,16.0,30.00,West,280,12.0,-999.0,63,-99.99,,,-99.99,,2013-02-18 13:02:00,
2013-02-18 06:22:00,27.0,14.0,30.01,West,280,8.0,-999.0,58,-99.99,,,-99.99,,2013-02-18 13:22:00,
2013-02-18 06:32:00,27.0,12.0,30.01,WNW,290,10.0,-999.0,54,-99.99,,,-99.99,,2013-02-18 13:32:00,
2013-02-18 06:42:00,27.0,12.0,30.01,WNW,290,10.0,-999.0,54,-99.99,,,-99.99,,2013-02-18 13:42:00,
2013-02-18 06:52:00,27.0,14.0,30.01,WNW,300,8.0,-999.0,58,-99.99,,,-99.99,,2013-02-18 13:52:00,
2013-02-18 07:02:00,27.0,14.0,30.01,WNW,300,8.0,-999.0,58,-99.99,,,-99.99,,2013-02-18 14:02:00,
2013-02-18 07:11:00,27.0,14.0,30.01,WNW,300,8.0,-999.0,58,-99.99,,,-99.99,,2013-02-18 14:11:00,
2013-02-18 07:22:00,27.0,14.0,30.01,WNW,300,8.0,-999.0,58,-99.99,,,-99.99,,2013-02-18 14:22:00,
2013-02-18 07:31:00,27.0,12.0,30.02,WNW,290,10.0,15.0,54,-99.99,,,-99.99,,2013-02-18 14:31:00,
2013-02-18 07:42:00,27.0,12.0,30.02,WNW,290,10.0,15.0,54,-99.99,,,-99.99,,2013-02-18 14:42:00,
2013-02-18 07:53:00,25.0,12.0,30.03,NW,320,8.0,-999.0,58,-99.99,,,-99.99,,2013-02-18 14:53:00,
2013-02-18 08:01:00,25.0,12.0,30.03,NW,320,8.0,-999.0,58,-99.99,,,-99.99,,2013-02-18 15:01:00,
2013-02-18 08:11:00,25.0,12.0,30.04,NW,310,10.0,-999.0,58,-99.99,,,-99.99,,2013-02-18 15:11:00,
2013-02-18 08:22:00,25.0,12.0,30.04,NW,310,10.0,-999.0,58,-99.99,,,-99.99,,2013-02-18 15:22:00,
2013-02-18 08:31:00,27.0,14.0,30.04,NW,320,6.0,-999.0,58,-99.99,,,-99.99,,2013-02-18 15:31:00,
2013-02-18 08:42:00,27.0,14.0,30.04,NW,320,6.0,-999.0,58,-99.99,,,-99.99,,2013-02-18 15:42:00,
2013-02-18 08:51:00,27.0,14.0,30.04,NW,320,6.0,-999.0,58,-99.99,,,-99.99,,2013-02-18 15:51:00,
2013-02-18 09:02:00,27.0,14.0,30.04,NW,320,6.0,-999.0,58,-99.99,,,-99.99,,2013-02-18 16:02:00,
2013-02-18 09:11:00,27.0,12.0,30.06,North,0,0.0,-999.0,54,-99.99,,,-99.99,,2013-02-18 16:11:00,
2013-02-18 09:22:00,27.0,12.0,30.06,North,0,0.0,-999.0,54,-99.99,,,-99.99,,2013-02-18 16:22:00,
2013-02-18 09:32:00,27.0,14.0,30.06,NW,320,5.0,-999.0,58,-99.99,,,-99.99,,2013-02-18 16:32:00,
2013-02-18 09:42:00,27.0,14.0,30.06,NW,320,5.0,-999.0,58,-99.99,,,-99.99,,2013-02-18 16:42:00,
2013-02-18 09:51:00,27.0,12.0,30.06,North,0,0.0,-999.0,54,-99.99,,,-99.99,,2013-02-18 16:51:00,
2013-02-18 10:02:00,27.0,12.0,30.06,North,0,0.0,-999.0,54,-99.99,,,-99.99,,2013-02-18 17:02:00,
2013-02-18 10:11:00,28.0,16.0,30.06,North,0,0.0,-999.0,58,-99.99,,,-99.99,,2013-02-18 17:11:00,
2013-02-18 10:21:00,28.0,16.0,30.06,North,0,0.0,-999.0,58,-99.99,,,-99.99,,2013-02-18 17:21:00,
2013-02-18 10:31:00,28.0,14.0,30.06,North,0,0.0,-999.0,54,-99.99,,,-99.99,,2013-02-18 17:31:00,
2013-02-18 10:42:00,28.0,14.0,30.06,North,0,0.0,-999.0,54,-99.99,,,-99.99,,2013-02-18 17:42:00,
2013-02-18 10:52:00,30.0,16.0,30.06,North,0,0.0,-999.0,54,-99.99,,,-99.99,,2013-02-18 17:52:00,
2013-02-18 11:02:00,30.0,16.0,30.06,North,0,0.0,-999.0,54,-99.99,,,-99.99,,2013-02-18 18:02:00,
2013-02-18 11:11:00,30.0,16.0,30.06,East,100,6.0,-999.0,54,-99.99,,,-99.99,,2013-02-18 18:11:00,
2013-02-18 11:22:00,30.0,16.0,30.06,East,100,6.0,-999.0,54,-99.99,,,-99.99,,2013-02-18 18:22:00,
2013-02-18 11:32:00,28.0,14.0,30.07,East,100,6.0,-999.0,54,-99.99,,,-99.99,,2013-02-18 18:32:00,
2013-02-18 11:42:00,28.0,14.0,30.07,East,100,6.0,-999.0,54,-99.99,,,-99.99,,2013-02-18 18:42:00,
2013-02-18 11:52:00,30.0,16.0,30.07,SE,130,5.0,-999.0,54,-99.99,,,-99.99,,2013-02-18 18:52:00,
2013-02-18 12:02:00,30.0,16.0,30.07,SE,130,5.0,-999.0,54,-99.99,,,-99.99,,2013-02-18 19:02:00,
2013-02-18 12:11:00,30.0,16.0,30.06,East,100,5.0,-999.0,54,-99.99,,,-99.99,,2013-02-18 19:11:00,
2013-02-18 12:21:00,30.0,16.0,30.06,East,100,5.0,-999.0,54,-99.99,,,-99.99,,2013-02-18 19:21:00,
2013-02-18 12:32:00,30.0,16.0,30.06,ESE,110,8.0,-999.0,54,-99.99,,,-99.99,,2013-02-18 19:32:00,
2013-02-18 12:42:00,30.0,16.0,30.06,ESE,110,8.0,-999.0,54,-99.99,,,-99.99,,2013-02-18 19:42:00,
2013-02-18 12:51:00,30.0,14.0,30.05,SE,130,9.0,-999.0,50,-99.99,,,-99.99,,2013-02-18 19:51:00,
2013-02-18 13:01:00,30.0,14.0,30.05,SE,130,9.0,-999.0,50,-99.99,,,-99.99,,2013-02-18 20:01:00,
2013-02-18 13:11:00,30.0,16.0,30.04,ESE,120,6.0,-999.0,54,-99.99,,,-99.99,,2013-02-18 20:11:00,
2013-02-18 13:22:00,30.0,16.0,30.04,ESE,120,6.0,-999.0,54,-99.99,,,-99.99,,2013-02-18 20:22:00,
2013-02-18 13:32:00,30.0,14.0,30.04,ESE,110,7.0,-999.0,50,-99.99,,,-99.99,,2013-02-18 20:32:00,
2013-02-18 13:42:00,30.0,14.0,30.04,ESE,110,7.0,-999.0,50,-99.99,,,-99.99,,2013-02-18 20:42:00,
2013-02-18 13:52:00,32.0,14.0,30.04,East,100,5.0,-999.0,46,-99.99,,,-99.99,,2013-02-18 20:52:00,
2013-02-18 14:02:00,32.0,14.0,30.04,East,100,5.0,-999.0,46,-99.99,,,-99.99,,2013-02-18 21:02:00,
2013-02-18 14:11:00,32.0,14.0,30.04,East,100,5.0,-999.0,46,-99.99,,,-99.99,,2013-02-18 21:11:00,
2013-02-18 14:21:00,32.0,14.0,30.04,East,100,5.0,-999.0,46,-99.99,,,-99.99,,2013-02-18 21:21:00,
2013-02-18 14:31:00,34.0,16.0,30.02,East,100,8.0,-999.0,47,-99.99,,,-99.99,,2013-02-18 21:31:00,
2013-02-18 14:43:00,34.0,16.0,30.02,East,100,8.0,-999.0,47,-99.99,,,-99.99,,2013-02-18 21:43:00,
2013-02-18 14:52:00,34.0,14.0,30.02,North,0,0.0,-999.0,43,-99.99,,,-99.99,,2013-02-18 21:52:00,
2013-02-18 15:02:00,34.0,14.0,30.02,North,0,0.0,-999.0,43,-99.99,,,-99.99,,2013-02-18 22:02:00,
2013-02-18 15:11:00,34.0,14.0,30.02,East,90,7.0,-999.0,43,-99.99,,,-99.99,,2013-02-18 22:11:00,
2013-02-18 15:22:00,34.0,14.0,30.02,East,90,7.0,-999.0,43,-99.99,,,-99.99,,2013-02-18 22:22:00,
2013-02-18 15:32:00,34.0,14.0,30.02,ESE,110,8.0,-999.0,43,-99.99,,,-99.99,,2013-02-18 22:32:00,
2013-02-18 15:42:00,34.0,14.0,30.02,ESE,110,8.0,-999.0,43,-99.99,,,-99.99,,2013-02-18 22:42:00,
2013-02-18 15:52:00,34.0,12.0,30.02,East,100,6.0,-999.0,40,-99.99,,,-99.99,,2013-02-18 22:52:00,
2013-02-18 16:02:00,34.0,12.0,30.02,East,100,6.0,-999.0,40,-99.99,,,-99.99,,2013-02-18 23:02:00,
2013-02-18 16:11:00,34.0,14.0,30.02,ESE,120,8.0,-999.0,43,-99.99,,,-99.99,,2013-02-18 23:11:00,
2013-02-18 16:22:00,34.0,14.0,30.02,ESE,120,8.0,-999.0,43,-99.99,,,-99.99,,2013-02-18 23:22:00,
2013-02-18 16:32:00,32.0,12.0,30.02,ESE,110,6.0,-999.0,43,-99.99,,,-99.99,,2013-02-18 23:32:00,
2013-02-18 16:52:00,32.0,12.0,30.01,East,100,8.0,-999.0,43,-99.99,,,-99.99,,2013-02-18 23:52:00,
2013-02-18 17:02:00,32.0,12.0,30.01,East,100,8.0,-999.0,43,-99.99,,,-99.99,,2013-02-19 00:02:00,
2013-02-18 17:11:00,32.0,12.0,30.01,East,100,8.0,-999.0,43,-99.99,,,-99.99,,2013-02-19 00:11:00,
2013-02-18 17:22:00,32.0,12.0,30.01,East,100,8.0,-999.0,43,-99.99,,,-99.99,,2013-02-19 00:22:00,
2013-02-18 17:32:00,30.0,12.0,30.01,North,0,0.0,-999.0,46,-99.99,,,-99.99,,2013-02-19 00:32:00,
2013-02-18 17:44:00,30.0,12.0,30.01,North,0,0.0,-999.0,46,-99.99,,,-99.99,,2013-02-19 00:44:00,
2013-02-18 17:54:00,30.0,12.0,30.00,North,0,0.0,-999.0,46,-99.99,,,-99.99,,2013-02-19 00:54:00,
2013-02-18 18:02:00,30.0,12.0,30.00,North,0,0.0,-999.0,46,-99.99,,,-99.99,,2013-02-19 01:02:00,
2013-02-18 18:12:00,28.0,10.0,30.00,North,0,0.0,-999.0,46,-99.99,,,-99.99,,2013-02-19 01:12:00,
2013-02-18 18:22:00,28.0,10.0,30.00,North,0,0.0,-999.0,46,-99.99,,,-99.99,,2013-02-19 01:22:00,
2013-02-18 18:32:00,27.0,10.0,29.99,North,0,0.0,-999.0,49,-99.99,,,-99.99,,2013-02-19 01:32:00,
2013-02-18 18:42:00,27.0,10.0,29.99,North,0,0.0,-999.0,49,-99.99,,,-99.99,,2013-02-19 01:42:00,
2013-02-18 18:52:00,27.0,10.0,29.99,North,0,0.0,-999.0,49,-99.99,,,-99.99,,2013-02-19 01:52:00,
2013-02-18 19:01:00,27.0,10.0,29.99,North,0,0.0,-999.0,49,-99.99,,,-99.99,,2013-02-19 02:01:00,
2013-02-18 19:11:00,27.0,10.0,29.98,North,0,0.0,-999.0,49,-99.99,,,-99.99,,2013-02-19 02:11:00,
2013-02-18 19:22:00,27.0,10.0,29.98,North,0,0.0,-999.0,49,-99.99,,,-99.99,,2013-02-19 02:22:00,
2013-02-18 19:32:00,21.0,9.0,29.98,North,0,0.0,-999.0,57,-99.99,,,-99.99,,2013-02-19 02:32:00,
2013-02-18 19:42:00,21.0,9.0,29.98,North,0,0.0,-999.0,57,-99.99,,,-99.99,,2013-02-19 02:42:00,
2013-02-18 19:52:00,21.0,10.0,29.97,North,0,0.0,-999.0,62,-99.99,,,-99.99,,2013-02-19 02:52:00,
2013-02-18 20:03:00,21.0,10.0,29.97,North,0,0.0,-999.0,62,-99.99,,,-99.99,,2013-02-19 03:03:00,
2013-02-18 20:11:00,23.0,10.0,29.98,North,0,0.0,-999.0,57,-99.99,,,-99.99,,2013-02-19 03:11:00,
2013-02-18 20:22:00,23.0,10.0,29.98,North,0,0.0,-999.0,57,-99.99,,,-99.99,,2013-02-19 03:22:00,
2013-02-18 20:32:00,21.0,9.0,29.97,North,0,0.0,-999.0,57,-99.99,,,-99.99,,2013-02-19 03:32:00,
2013-02-18 20:43:00,21.0,9.0,29.97,North,0,0.0,-999.0,57,-99.99,,,-99.99,,2013-02-19 03:43:00,
2013-02-18 20:52:00,19.0,9.0,29.97,South,190,5.0,-999.0,62,-99.99,,,-99.99,,2013-02-19 03:52:00,
2013-02-18 21:01:00,19.0,9.0,29.97,South,190,5.0,-999.0,62,-99.99,,,-99.99,,2013-02-19 04:01:00,
2013-02-18 21:11:00,19.0,9.0,29.96,North,0,0.0,-999.0,62,-99.99,,,-99.99,,2013-02-19 04:11:00,
2013-02-18 21:22:00,19.0,9.0,29.96,North,0,0.0,-999.0,62,-99.99,,,-99.99,,2013-02-19 04:22:00,
2013-02-18 21:32:00,19.0,10.0,29.96,SSW,200,5.0,-999.0,67,-99.99,,,-99.99,,2013-02-19 04:32:00,
2013-02-18 21:42:00,19.0,10.0,29.96,SSW,200,5.0,-999.0,67,-99.99,,,-99.99,,2013-02-19 04:42:00,
2013-02-18 21:51:00,21.0,10.0,29.96,NW,320,5.0,-999.0,62,-99.99,,,-99.99,,2013-02-19 04:51:00,
2013-02-18 22:01:00,21.0,10.0,29.96,NW,320,5.0,-999.0,62,-99.99,,,-99.99,,2013-02-19 05:01:00,
2013-02-18 22:12:00,21.0,10.0,29.96,NNW,340,5.0,-999.0,62,-99.99,,,-99.99,,2013-02-19 05:12:00,
2013-02-18 22:22:00,21.0,10.0,29.96,NNW,340,5.0,-999.0,62,-99.99,,,-99.99,,2013-02-19 05:22:00,
2013-02-18 22:32:00,19.0,10.0,29.95,NNW,340,7.0,-999.0,67,-99.99,,,-99.99,,2013-02-19 05:32:00,
2013-02-18 22:42:00,19.0,10.0,29.95,NNW,340,7.0,-999.0,67,-99.99,,,-99.99,,2013-02-19 05:42:00,
2013-02-18 22:52:00,19.0,10.0,29.96,North,350,7.0,-999.0,67,-99.99,,,-99.99,,2013-02-19 05:52:00,
2013-02-18 23:02:00,19.0,10.0,29.96,North,350,7.0,-999.0,67,-99.99,,,-99.99,,2013-02-19 06:02:00,
2013-02-18 23:11:00,19.0,10.0,29.96,North,350,7.0,-999.0,67,-99.99,,,-99.99,,2013-02-19 06:11:00,
2013-02-18 23:21:00,19.0,10.0,29.96,North,350,7.0,-999.0,67,-99.99,,,-99.99,,2013-02-19 06:21:00,
2013-02-18 23:32:00,19.0,10.0,29.95,NNW,340,6.0,-999.0,67,-99.99,,,-99.99,,2013-02-19 06:32:00,
2013-02-18 23:42:00,19.0,10.0,29.95,NNW,340,6.0,-999.0,67,-99.99,,,-99.99,,2013-02-19 06:42:00,
2013-02-18 23:52:00,19.0,10.0,29.95,NNW,340,6.0,-999.0,67,-99.99,,,-99.99,,2013-02-19 06:52:00,